»·PEaware :: FDX515 KBUR-KLAS

FDX515 :: KBUR-KLAS

FLIGHT INFORMATION

Flight Status: Arrived
Operator:
Federal Express
More flights by this operator :: More flights under this callsign
Pilot: Doug L. (8712)
Aircraft: BOEING 767-300
(B763)
More flights by this aircraft type
Origin: KBUR Bob Hope-Burbank
United States
Destination: KLAS McCarran Intl
United States
More flights between these airports :: More routes between these airports
Route: +SLAPP1 MISEN KEPEC6
File this flight plan on PilotEdge
Remarks:
Altitude:
(Current/Filed)
29,000ft
Speed:
(Current/Filed)
450kts
Departed: 22-Dec-18 03:57 PM
Arrived: 22-Dec-18 04:43 PM
Distance/Time
Traveled:
195nm/0:46
Distance/Time
To Go:
Arrived

Flight Plot

Page will automatically refresh every two minutes.

Flight plan parsing failed; only flown route is shown


Map Options




Map Legend


Flown Route
Filed Route
Departure Airport
Arrival Airport
Navaid (VOR, NDB)
Fix

Horizontal Profiles

Position Reports

Time Latitude Longitude Heading Altitude Ground
Speed
22-Dec-18 15:40 34.196196 -118.363839 149 723ft 0kts
22-Dec-18 15:41 34.196196 -118.363839 149 723ft 0kts
22-Dec-18 15:42 34.196196 -118.363839 149 723ft 0kts
22-Dec-18 15:43 34.196196 -118.363839 149 723ft 0kts
22-Dec-18 15:44 34.196195 -118.363839 149 723ft 0kts
22-Dec-18 15:45 34.196195 -118.363839 149 723ft 0kts
22-Dec-18 15:46 34.196195 -118.363839 149 723ft 0kts
22-Dec-18 15:47 34.196467 -118.363984 156 724ft 2kts
22-Dec-18 15:48 34.196893 -118.364277 94 726ft 1kts
22-Dec-18 15:49 34.196895 -118.364329 90 726ft 0kts
22-Dec-18 15:50 34.196895 -118.364329 90 726ft 0kts
22-Dec-18 15:51 34.196827 -118.360996 91 722ft 23kts
22-Dec-18 15:52 34.198013 -118.357944 2 718ft 15kts
22-Dec-18 15:53 34.203430 -118.359158 347 741ft 19kts
22-Dec-18 15:54 34.208393 -118.360530 347 760ft 16kts
22-Dec-18 15:55 34.211904 -118.361423 7 776ft 10kts
22-Dec-18 15:56 34.207737 -118.359226 166 756ft 92kts
22-Dec-18 15:57 34.169940 -118.352816 194 2012ft 176kts
22-Dec-18 15:58 34.127686 -118.394658 222 3493ft 238kts
22-Dec-18 15:59 34.082660 -118.445552 230 5609ft 265kts
22-Dec-18 16:00 34.099209 -118.517755 341 8259ft 274kts
22-Dec-18 16:01 34.174248 -118.532755 352 9004ft 288kts
22-Dec-18 16:02 34.236602 -118.494645 45 10517ft 319kts
22-Dec-18 16:03 34.313919 -118.424680 30 11923ft 383kts
22-Dec-18 16:04 34.405510 -118.358627 15 14769ft 395kts
22-Dec-18 16:05 34.501873 -118.294039 35 17429ft 423kts
22-Dec-18 16:06 34.593114 -118.202483 35 19091ft 435kts
22-Dec-18 16:07 34.669128 -118.091131 65 19101ft 446kts
22-Dec-18 16:08 34.693337 -117.941807 83 20178ft 461kts
22-Dec-18 16:09 34.702842 -117.786346 83 22498ft 478kts
22-Dec-18 16:10 34.709855 -117.623086 84 24683ft 496kts
22-Dec-18 16:11 34.728257 -117.457678 68 26758ft 505kts
22-Dec-18 16:12 34.768668 -117.303983 68 27093ft 507kts
22-Dec-18 16:13 34.810968 -117.143792 68 27093ft 530kts
22-Dec-18 16:14 34.854042 -116.979705 68 27137ft 529kts
22-Dec-18 16:15 34.897607 -116.812805 69 27178ft 530kts
22-Dec-18 16:16 34.958122 -116.661370 51 27180ft 494kts
22-Dec-18 16:17 35.033152 -116.527085 51 25976ft 467kts
22-Dec-18 16:18 35.105080 -116.401771 44 24151ft 455kts
22-Dec-18 16:19 35.177888 -116.309502 41 24189ft 450kts
22-Dec-18 16:20 35.265669 -116.199205 41 21847ft 452kts
22-Dec-18 16:21 35.351772 -116.090769 42 19451ft 440kts
22-Dec-18 16:22 35.432549 -115.988713 42 17150ft 404kts
22-Dec-18 16:23 35.502629 -115.899965 43 14985ft 377kts
22-Dec-18 16:24 35.575547 -115.807375 44 13060ft 369kts
22-Dec-18 16:25 35.640806 -115.724206 43 13060ft 314kts
22-Dec-18 16:26 35.701190 -115.647168 43 13074ft 314kts
22-Dec-18 16:27 35.766451 -115.578966 12 13089ft 306kts
22-Dec-18 16:28 35.850173 -115.570594 359 13068ft 303kts
22-Dec-18 16:29 35.934379 -115.565372 3 13016ft 306kts
22-Dec-18 16:30 35.991408 -115.498675 66 11417ft 303kts
22-Dec-18 16:31 36.021131 -115.406511 67 10966ft 276kts
22-Dec-18 16:32 36.026596 -115.315837 94 9858ft 275kts
22-Dec-18 16:33 36.020298 -115.226874 94 8983ft 260kts
22-Dec-18 16:34 36.014300 -115.139896 94 7955ft 231kts
22-Dec-18 16:35 36.009237 -115.063232 93 7982ft 232kts
22-Dec-18 16:36 36.004433 -114.982298 93 6731ft 241kts
22-Dec-18 16:37 36.031424 -114.930474 345 5302ft 195kts
22-Dec-18 16:38 36.071100 -114.972618 307 4485ft 190kts
22-Dec-18 16:39 36.074143 -115.037397 271 3265ft 192kts
22-Dec-18 16:40 36.073887 -115.096423 269 2471ft 167kts
22-Dec-18 16:41 36.073625 -115.150171 270 2125ft 113kts
22-Dec-18 16:42 36.076299 -115.161211 358 2160ft 24kts
22-Dec-18 16:43 36.078035 -115.153131 90 2127ft 43kts
22-Dec-18 16:44 36.077516 -115.141973 90 2090ft 37kts
22-Dec-18 16:45 36.077549 -115.130117 90 2054ft 24kts
22-Dec-18 16:46 36.080392 -115.126357 359 2041ft 24kts
22-Dec-18 16:47 36.081216 -115.125733 90 2038ft 0kts
22-Dec-18 16:48 36.081216 -115.125733 90 2038ft 0kts
22-Dec-18 16:49 36.081216 -115.125733 90 2038ft 0kts
22-Dec-18 16:50 36.081216 -115.125733 90 2038ft 0kts
22-Dec-18 16:51 36.081216 -115.125733 90 2038ft 0kts

Navigation Log

Ident Type
Flight plan parsing failed, navigation log unavailable